createdAt,value
2022-11-25T00:01:16.445Z,36.63
2022-11-25T00:03:44.815Z,31.57
2022-11-25T00:06:20.800Z,28.23
2022-11-25T00:08:49.724Z,27.73
2022-11-25T00:11:18.416Z,20.43
2022-11-25T00:13:46.697Z,23.43
2022-11-25T00:16:16.780Z,22.87
2022-11-25T00:18:49.078Z,32.20
2022-11-25T00:21:18.848Z,27.50
2022-11-25T00:23:51.787Z,26.93
2022-11-25T00:26:19.619Z,25.20
2022-11-25T00:28:47.626Z,24.83
2022-11-25T00:31:20.986Z,25.20
2022-11-25T00:33:48.371Z,20.17
2022-11-25T00:36:15.630Z,30.73
2022-11-25T00:38:42.944Z,22.23
2022-11-25T00:41:29.094Z,28.73
2022-11-25T00:44:15.501Z,22.93
2022-11-25T00:46:42.828Z,29.20
2022-11-25T00:49:10.183Z,17.67
2022-11-25T00:51:37.447Z,33.67
2022-11-25T00:54:04.827Z,24.13
2022-11-25T00:56:32.202Z,22.50
2022-11-25T00:58:59.494Z,29.77
2022-11-25T01:01:26.951Z,31.67
2022-11-25T01:03:54.455Z,25.63
2022-11-25T01:06:22.144Z,23.50
2022-11-25T01:08:49.716Z,29.10
2022-11-25T01:11:20.035Z,22.37
2022-11-25T01:13:47.411Z,22.50
2022-11-25T01:16:17.933Z,23.33
2022-11-25T01:18:47.298Z,23.00
2022-11-25T01:21:20.263Z,27.07
2022-11-25T01:23:48.544Z,27.70
2022-11-25T01:26:18.999Z,21.73
2022-11-25T01:28:46.752Z,30.10
2022-11-25T01:31:18.990Z,27.17
2022-11-25T01:33:47.216Z,27.60
2022-11-25T01:36:18.430Z,25.30
2022-11-25T01:38:49.371Z,32.70
2022-11-25T01:41:16.687Z,24.03
2022-11-25T01:43:44.154Z,36.10
2022-11-25T01:46:25.230Z,21.97
2022-11-25T01:48:56.515Z,32.37
2022-11-25T01:51:26.654Z,19.00
2022-11-25T01:53:57.165Z,28.20
2022-11-25T01:56:26.318Z,31.00
2022-11-25T01:58:53.895Z,24.00
2022-11-25T02:01:21.897Z,20.20
2022-11-25T02:03:52.565Z,27.97
2022-11-25T02:06:24.216Z,32.67
2022-11-25T02:08:55.647Z,27.00
2022-11-25T02:11:25.516Z,13.80
2022-11-25T02:13:53.951Z,26.40
2022-11-25T02:16:21.354Z,19.03
2022-11-25T02:18:50.601Z,25.70
2022-11-25T02:21:25.689Z,44.57
2022-11-25T02:23:53.347Z,16.13
2022-11-25T02:26:21.139Z,32.57
2022-11-25T02:28:50.253Z,20.40
2022-11-25T02:31:21.479Z,22.13
2022-11-25T02:33:48.676Z,21.20
2022-11-25T02:36:19.906Z,24.00
2022-11-25T02:38:47.262Z,30.90
2022-11-25T02:41:26.581Z,18.50
2022-11-25T02:43:59.342Z,17.10
2022-11-25T02:46:28.190Z,22.67
2022-11-25T02:49:12.480Z,32.77
2022-11-25T02:51:44.733Z,28.53
2022-11-25T02:54:14.170Z,25.43
2022-11-25T02:56:41.725Z,25.27
2022-11-25T02:59:09.590Z,22.40
2022-11-25T03:01:38.327Z,23.23
2022-11-25T03:04:07.312Z,24.07
2022-11-25T03:07:46.556Z,17.93
2022-11-25T03:10:16.724Z,24.03
2022-11-25T03:12:44.441Z,32.23
2022-11-25T03:15:12.156Z,20.17
2022-11-25T03:17:40.025Z,21.43
2022-11-25T03:20:08.654Z,19.40
2022-11-25T03:22:36.091Z,11.47
2022-11-25T03:25:05.221Z,20.37
2022-11-25T03:27:34.511Z,23.77
2022-11-25T03:30:02.965Z,15.80
2022-11-25T03:32:30.767Z,17.07
2022-11-25T03:34:58.224Z,34.63
2022-11-25T03:37:25.673Z,21.97
2022-11-25T03:39:53.164Z,18.70
2022-11-25T03:42:20.678Z,21.57
2022-11-25T03:44:47.635Z,17.60
2022-11-25T03:47:15.011Z,21.87
2022-11-25T03:49:42.731Z,17.83
2022-11-25T03:52:11.002Z,28.73
2022-11-25T03:54:38.569Z,16.07
2022-11-25T03:57:20.757Z,17.67
2022-11-25T03:59:48.183Z,20.53
2022-11-25T04:02:15.702Z,13.37
2022-11-25T04:04:43.171Z,17.77
2022-11-25T04:07:10.601Z,19.40
2022-11-25T04:09:38.152Z,18.33
2022-11-25T04:12:26.080Z,12.63
2022-11-25T04:14:58.261Z,12.17
2022-11-25T04:17:25.924Z,17.10
2022-11-25T04:19:53.327Z,18.10
2022-11-25T04:22:20.794Z,21.30
2022-11-25T04:24:49.632Z,20.13
2022-11-25T04:27:22.254Z,31.33
2022-11-25T04:29:49.824Z,24.77
2022-11-25T04:32:20.322Z,17.07
2022-11-25T04:34:47.763Z,20.57
2022-11-25T04:37:15.215Z,13.27
2022-11-25T04:39:43.804Z,20.83
2022-11-25T04:42:33.136Z,22.80
2022-11-25T04:47:55.666Z,28.07
2022-11-25T04:50:24.254Z,16.70
2022-11-25T04:53:06.775Z,13.73
2022-11-25T04:55:34.140Z,21.33
2022-11-25T04:58:05.199Z,19.37
2022-11-25T05:00:34.350Z,19.27
2022-11-25T05:03:02.437Z,30.13
2022-11-25T05:05:31.736Z,19.33
2022-11-25T05:07:59.797Z,19.77
2022-11-25T05:10:27.229Z,19.75
2022-11-25T05:12:54.588Z,17.27
2022-11-25T05:15:22.587Z,20.40
2022-11-25T05:17:49.960Z,27.93
2022-11-25T05:20:26.228Z,20.53
2022-11-25T05:22:53.456Z,18.70
2022-11-25T05:25:24.531Z,22.80
2022-11-25T05:28:05.298Z,26.37
2022-11-25T05:30:32.358Z,17.47
2022-11-25T05:32:59.450Z,23.60
2022-11-25T05:35:26.905Z,15.13
2022-11-25T05:37:54.459Z,17.97
2022-11-25T05:40:22.226Z,17.53
2022-11-25T05:43:12.523Z,21.52
2022-11-25T05:45:41.223Z,30.73
2022-11-25T05:48:11.044Z,21.53
2022-11-25T05:50:38.917Z,19.30
2022-11-25T05:53:22.195Z,22.43
2022-11-25T05:56:00.333Z,19.93
2022-11-25T05:58:45.249Z,14.67
2022-11-25T06:01:15.160Z,23.60
2022-11-25T06:03:42.703Z,20.73
2022-11-25T06:06:11.230Z,20.13
2022-11-25T06:08:39.692Z,25.90
2022-11-25T06:11:13.868Z,24.60
2022-11-25T06:13:41.615Z,23.07
2022-11-25T06:16:17.604Z,29.23
2022-11-25T06:18:49.169Z,23.33
2022-11-25T06:21:17.441Z,24.97
2022-11-25T06:23:46.108Z,21.97
2022-11-25T06:26:18.531Z,21.70
2022-11-25T06:28:46.107Z,12.70
2022-11-25T06:31:18.862Z,22.47
2022-11-25T06:33:55.370Z,22.83
2022-11-25T06:36:23.160Z,23.77
2022-11-25T06:38:52.575Z,23.73
2022-11-25T06:41:20.739Z,22.13
2022-11-25T06:43:48.112Z,17.00
2022-11-25T06:46:24.176Z,15.77
2022-11-25T06:48:52.201Z,27.23
2022-11-25T06:51:19.249Z,18.17
2022-11-25T06:53:46.633Z,14.83
2022-11-25T06:56:22.285Z,23.43
2022-11-25T06:58:51.910Z,24.43
2022-11-25T07:01:21.575Z,22.93
2022-11-25T07:03:53.429Z,28.13
2022-11-25T07:06:21.358Z,19.67
2022-11-25T07:08:48.690Z,24.47
2022-11-25T07:11:30.491Z,18.67
2022-11-25T07:14:03.003Z,19.60
2022-11-25T07:16:31.486Z,30.57
2022-11-25T07:19:03.050Z,21.83
2022-11-25T07:21:31.976Z,25.00
2022-11-25T07:24:01.239Z,22.30
2022-11-25T07:26:30.720Z,22.17
2022-11-25T07:29:03.820Z,25.80
2022-11-25T07:31:39.357Z,19.80
2022-11-25T07:34:18.000Z,20.73
2022-11-25T07:36:46.446Z,24.30
2022-11-25T07:39:19.621Z,27.17
2022-11-25T07:41:50.218Z,30.93
2022-11-25T07:44:17.591Z,27.63
2022-11-25T07:46:51.622Z,26.60
2022-11-25T07:49:21.579Z,41.40
2022-11-25T07:51:59.764Z,22.20
2022-11-25T07:54:26.923Z,24.13
2022-11-25T07:56:53.958Z,22.63
2022-11-25T07:59:22.845Z,19.40
2022-11-25T08:01:51.203Z,24.20
2022-11-25T08:04:20.824Z,21.00
2022-11-25T08:06:50.800Z,20.57
2022-11-25T08:09:21.436Z,14.73
2022-11-25T08:11:49.004Z,16.93
2022-11-25T08:14:16.457Z,22.30
2022-11-25T08:16:43.708Z,21.37
2022-11-25T08:19:14.336Z,15.80
2022-11-25T08:21:41.934Z,19.13
2022-11-25T08:24:17.936Z,24.40
2022-11-25T08:26:46.078Z,25.70
2022-11-25T08:29:15.551Z,20.60
2022-11-25T08:31:43.152Z,18.70
2022-11-25T08:34:16.995Z,21.63
2022-11-25T08:36:48.191Z,24.70
2022-11-25T08:39:44.280Z,16.23
2022-11-25T08:42:05.500Z,15.57
2022-11-25T08:44:32.614Z,26.30
2022-11-25T08:47:00.115Z,15.53
2022-11-25T08:49:31.179Z,22.43
2022-11-25T08:52:00.712Z,15.70
2022-11-25T08:54:28.164Z,11.23
2022-11-25T08:56:55.153Z,18.17
2022-11-25T08:59:22.937Z,17.77
2022-11-25T09:01:50.525Z,17.37
2022-11-25T09:04:18.021Z,19.80
2022-11-25T09:06:45.485Z,10.50
2022-11-25T09:09:12.971Z,15.70
2022-11-25T09:11:40.804Z,16.83
2022-11-25T09:14:08.531Z,18.07
2022-11-25T09:16:36.027Z,17.53
2022-11-25T09:19:04.219Z,13.83
2022-11-25T09:21:31.457Z,15.10
2022-11-25T09:23:58.867Z,10.73
2022-11-25T09:26:28.723Z,13.70
2022-11-25T09:28:56.561Z,15.93
2022-11-25T09:31:24.251Z,17.50
2022-11-25T09:33:51.728Z,18.57
2022-11-25T09:36:20.339Z,17.40
2022-11-25T09:38:47.690Z,11.27
2022-11-25T09:41:47.113Z,10.30
2022-11-25T09:44:49.449Z,13.83
2022-11-25T09:47:55.677Z,19.43
2022-11-25T09:50:24.898Z,11.20
2022-11-25T09:53:03.980Z,21.47
2022-11-25T09:55:39.665Z,16.23
2022-11-25T09:58:41.874Z,16.33
2022-11-25T10:01:17.015Z,14.27
2022-11-25T10:04:04.459Z,22.03
2022-11-25T10:06:36.852Z,22.27
2022-11-25T10:09:13.386Z,14.73
2022-11-25T10:12:19.253Z,17.23
2022-11-25T10:14:49.705Z,17.07
2022-11-25T10:17:38.325Z,24.63
2022-11-25T10:20:25.785Z,14.53
2022-11-25T10:22:57.793Z,13.43
2022-11-25T10:25:30.939Z,20.43
2022-11-25T10:28:21.098Z,19.23
2022-11-25T10:31:04.502Z,15.33
2022-11-25T10:33:31.908Z,16.23
2022-11-25T10:35:59.282Z,22.17
2022-11-25T10:38:32.173Z,14.87
2022-11-25T10:40:59.790Z,20.63
2022-11-25T10:43:31.527Z,10.03
2022-11-25T10:45:59.825Z,19.27
2022-11-25T10:49:02.819Z,14.97
2022-11-25T10:51:44.387Z,14.17
2022-11-25T10:54:14.471Z,12.57
2022-11-25T10:56:53.394Z,11.47
2022-11-25T10:59:29.544Z,16.97
2022-11-25T11:02:28.876Z,16.93
2022-11-25T11:04:56.280Z,12.70
2022-11-25T11:07:24.419Z,15.67
2022-11-25T11:09:52.309Z,18.63
2022-11-25T11:12:25.982Z,13.13
2022-11-25T11:15:14.257Z,10.03
2022-11-25T11:17:41.421Z,15.93
2022-11-25T11:20:08.868Z,16.10
2022-11-25T11:22:44.608Z,17.67
2022-11-25T11:25:20.590Z,14.53
2022-11-25T11:27:48.224Z,19.07
2022-11-25T11:30:20.416Z,10.43
2022-11-25T11:33:01.116Z,15.83
2022-11-25T11:35:49.539Z,16.50
2022-11-25T11:38:33.507Z,12.93
2022-11-25T11:41:22.738Z,14.30
2022-11-25T11:44:06.552Z,15.50
2022-11-25T11:46:34.006Z,12.67
2022-11-25T11:49:33.546Z,19.40
2022-11-25T11:52:00.942Z,13.70
2022-11-25T11:54:36.200Z,15.27
2022-11-25T11:57:11.403Z,20.67
2022-11-25T11:59:53.501Z,20.63
2022-11-25T12:02:55.505Z,22.23
2022-11-25T12:05:27.485Z,12.20
2022-11-25T12:08:18.460Z,17.33
2022-11-25T12:10:53.425Z,23.00
2022-11-25T12:13:28.162Z,19.33
2022-11-25T12:16:02.133Z,18.97
2022-11-25T12:19:10.419Z,25.57
2022-11-25T12:22:02.202Z,23.50
2022-11-25T12:24:51.046Z,20.27
2022-11-25T12:27:32.176Z,22.70
2022-11-25T12:30:07.909Z,20.03
2022-11-25T12:32:37.747Z,12.90
2022-11-25T12:35:15.533Z,20.70
2022-11-25T12:38:04.612Z,22.67
2022-11-25T12:40:57.788Z,12.37
2022-11-25T12:43:40.585Z,20.13
2022-11-25T12:46:26.312Z,17.43
2022-11-25T12:48:56.826Z,18.27
2022-11-25T12:51:35.872Z,19.43
2022-11-25T12:54:03.767Z,18.57
2022-11-25T12:57:00.263Z,33.53
2022-11-25T12:59:48.523Z,15.63
2022-11-25T13:02:49.934Z,12.50
2022-11-25T13:05:52.991Z,18.23
2022-11-25T13:08:47.486Z,17.87
2022-11-25T13:11:41.902Z,20.93
2022-11-25T13:15:02.119Z,31.77
2022-11-25T13:17:32.575Z,20.87
2022-11-25T13:20:27.937Z,18.90
2022-11-25T13:23:24.175Z,18.07
2022-11-25T13:25:53.649Z,18.87
2022-11-25T13:28:35.786Z,20.40
2022-11-25T13:31:33.702Z,16.33
2022-11-25T13:34:31.041Z,15.80
2022-11-25T13:37:00.348Z,14.00
2022-11-25T13:39:36.031Z,18.50
2022-11-25T13:42:27.402Z,12.47
2022-11-25T13:45:00.342Z,21.87
2022-11-25T13:47:40.171Z,19.33
2022-11-25T13:50:21.810Z,16.67
2022-11-25T13:53:01.339Z,17.03
2022-11-25T13:55:39.840Z,15.10
2022-11-25T13:58:07.271Z,15.40
2022-11-25T14:00:34.628Z,18.80
2022-11-25T14:03:28.157Z,16.90
2022-11-25T14:06:07.646Z,23.97
2022-11-25T14:08:53.707Z,16.37
2022-11-25T14:11:40.668Z,19.97
2022-11-25T14:14:46.513Z,20.57
2022-11-25T14:17:22.115Z,20.00
2022-11-25T14:20:24.868Z,21.57
2022-11-25T14:23:23.798Z,20.90
2022-11-25T14:26:01.572Z,23.93
2022-11-25T14:28:51.086Z,31.83
2022-11-25T14:31:27.233Z,23.80
2022-11-25T14:34:00.814Z,18.57
2022-11-25T14:36:33.763Z,19.43
2022-11-25T14:39:09.023Z,26.07
2022-11-25T14:41:41.919Z,17.27
2022-11-25T14:44:17.588Z,25.77
2022-11-25T14:46:55.789Z,21.83
2022-11-25T14:52:11.637Z,21.50
2022-11-25T14:54:44.360Z,19.17
2022-11-25T14:57:11.975Z,18.73
2022-11-25T14:59:43.742Z,19.67
2022-11-25T15:02:28.182Z,23.77
2022-11-25T15:05:21.975Z,20.13
2022-11-25T15:08:17.509Z,25.37
2022-11-25T15:10:44.868Z,21.13
2022-11-25T15:13:24.812Z,26.23
2022-11-25T15:15:53.674Z,20.23
2022-11-25T15:18:24.611Z,20.60
2022-11-25T15:20:57.359Z,24.07
2022-11-25T15:23:34.708Z,22.83
2022-11-25T15:26:03.229Z,20.33
2022-11-25T15:28:38.507Z,23.23
2022-11-25T15:31:11.000Z,15.87
2022-11-25T15:33:38.642Z,18.53
2022-11-25T15:36:06.115Z,19.93
2022-11-25T15:38:44.830Z,21.37
2022-11-25T15:41:31.292Z,20.80
2022-11-25T15:44:01.812Z,26.60
2022-11-25T15:46:30.791Z,27.00
2022-11-25T15:49:01.172Z,21.90
2022-11-25T15:51:44.656Z,17.37
2022-11-25T15:54:17.647Z,16.97
2022-11-25T15:57:03.229Z,13.80
2022-11-25T15:59:58.962Z,20.27
2022-11-25T16:02:44.151Z,21.47
2022-11-25T16:05:14.369Z,19.33
2022-11-25T16:07:58.191Z,30.27
2022-11-25T16:10:33.820Z,16.67
2022-11-25T16:13:21.148Z,21.97
2022-11-25T16:15:49.117Z,29.20
2022-11-25T16:18:39.139Z,19.60
2022-11-25T16:21:26.992Z,25.43
2022-11-25T16:23:59.687Z,24.93
2022-11-25T16:26:36.515Z,22.97
2022-11-25T16:29:26.000Z,25.30
2022-11-25T16:31:53.422Z,25.30
2022-11-25T16:34:24.103Z,35.37
2022-11-25T16:36:51.626Z,30.93
2022-11-25T16:39:19.071Z,31.83
2022-11-25T16:41:55.916Z,24.90
2022-11-25T16:44:25.358Z,27.43
2022-11-25T16:46:53.347Z,25.10
2022-11-25T16:49:22.347Z,34.30
2022-11-25T16:51:50.692Z,25.10
2022-11-25T16:54:21.772Z,26.67
2022-11-25T16:56:51.533Z,24.23
2022-11-25T16:59:28.910Z,29.23
2022-11-25T17:01:56.617Z,24.23
2022-11-25T17:04:24.060Z,24.17
2022-11-25T17:07:24.148Z,22.60
2022-11-25T17:09:39.620Z,23.93
2022-11-25T17:12:13.700Z,30.00
2022-11-25T17:14:41.989Z,29.13
2022-11-25T17:17:12.599Z,22.60
2022-11-25T17:19:40.682Z,27.53
2022-11-25T17:22:18.533Z,24.47
2022-11-25T17:24:46.429Z,19.70
2022-11-25T17:27:23.996Z,18.60
2022-11-25T17:29:52.512Z,34.00
2022-11-25T17:32:20.172Z,28.80
2022-11-25T17:34:47.586Z,42.07
2022-11-25T17:37:16.600Z,43.73
2022-11-25T17:39:44.106Z,49.30
2022-11-25T17:42:19.524Z,48.23
2022-11-25T17:44:51.229Z,43.63
2022-11-25T17:47:20.499Z,29.27
2022-11-25T17:49:49.447Z,42.57
2022-11-25T17:52:17.055Z,30.70
2022-11-25T17:54:44.597Z,26.53
2022-11-25T17:57:17.312Z,26.73
2022-11-25T17:59:44.796Z,33.90
2022-11-25T18:02:18.638Z,34.17
2022-11-25T18:04:46.234Z,32.20
2022-11-25T18:07:13.737Z,18.53
2022-11-25T18:09:41.260Z,21.00
2022-11-25T18:12:18.658Z,21.07
2022-11-25T18:14:46.313Z,39.63
2022-11-25T18:17:17.369Z,27.27
2022-11-25T18:19:48.554Z,22.47
2022-11-25T18:22:19.743Z,21.97
2022-11-25T18:24:47.204Z,29.43
2022-11-25T18:27:22.033Z,25.10
2022-11-25T18:29:49.653Z,25.27
2022-11-25T18:32:17.155Z,21.97
2022-11-25T18:34:44.823Z,19.90
2022-11-25T18:37:12.346Z,20.10
2022-11-25T18:39:40.084Z,28.27
2022-11-25T18:42:14.595Z,31.87
2022-11-25T18:44:44.456Z,24.03
2022-11-25T18:47:12.210Z,36.50
2022-11-25T18:49:39.627Z,25.43
2022-11-25T18:52:06.986Z,32.50
2022-11-25T18:54:34.621Z,29.57
2022-11-25T18:57:02.178Z,36.70
2022-11-25T18:59:34.916Z,31.70
2022-11-25T19:02:02.263Z,33.37
2022-11-25T19:04:30.091Z,32.70
2022-11-25T19:06:57.748Z,22.67
2022-11-25T19:09:24.843Z,22.53
2022-11-25T19:11:57.505Z,31.38
2022-11-25T19:14:37.362Z,37.70
2022-11-25T19:17:08.364Z,31.67
2022-11-25T19:19:37.890Z,37.77
2022-11-25T19:22:15.881Z,29.23
2022-11-25T19:24:46.233Z,31.40
2022-11-25T19:27:20.108Z,32.37
2022-11-25T19:29:49.167Z,32.80
2022-11-25T19:32:20.950Z,21.93
2022-11-25T19:35:01.082Z,32.00
2022-11-25T19:37:30.168Z,28.63
2022-11-25T19:39:57.645Z,28.50
2022-11-25T19:42:25.764Z,34.13
2022-11-25T19:44:53.149Z,28.30
2022-11-25T19:47:22.909Z,32.60
2022-11-25T19:49:56.821Z,30.57
2022-11-25T19:52:30.638Z,28.27
2022-11-25T19:54:58.193Z,41.30
2022-11-25T19:57:25.849Z,42.93
2022-11-25T19:59:53.411Z,32.67
2022-11-25T20:02:23.458Z,32.23
2022-11-25T20:04:53.653Z,39.97
2022-11-25T20:07:21.806Z,29.33
2022-11-25T20:09:51.607Z,33.30
2022-11-25T20:12:29.771Z,38.93
2022-11-25T20:14:57.254Z,36.40
2022-11-25T20:17:31.334Z,37.23
2022-11-25T20:20:11.272Z,34.07
2022-11-25T20:22:41.546Z,33.30
2022-11-25T20:25:10.601Z,34.67
2022-11-25T20:27:37.846Z,25.20
2022-11-25T20:30:16.659Z,38.63
2022-11-25T20:32:44.248Z,44.97
2022-11-25T20:35:12.100Z,33.60
2022-11-25T20:37:50.763Z,36.60
2022-11-25T20:40:23.591Z,44.37
2022-11-25T20:42:51.264Z,36.40
2022-11-25T20:45:21.859Z,33.47
2022-11-25T20:47:51.014Z,35.83
2022-11-25T20:50:19.584Z,40.20
2022-11-25T20:52:50.591Z,32.83
2022-11-25T20:55:18.361Z,26.57
2022-11-25T20:57:46.116Z,36.83
2022-11-25T21:00:24.301Z,37.80
2022-11-25T21:02:52.007Z,38.67
2022-11-25T21:05:19.747Z,42.27
2022-11-25T21:07:48.874Z,53.30
2022-11-25T21:10:27.161Z,36.40
2022-11-25T21:12:55.058Z,45.00
2022-11-25T21:15:31.810Z,41.60
2022-11-25T21:18:00.771Z,44.87
2022-11-25T21:20:28.348Z,45.70
2022-11-25T21:23:05.584Z,53.77
2022-11-25T21:25:33.914Z,44.20
2022-11-25T21:28:01.760Z,35.87
2022-11-25T21:30:31.173Z,51.80
2022-11-25T21:33:00.988Z,50.87
2022-11-25T21:35:34.208Z,42.63
2022-11-25T21:38:07.105Z,36.50
2022-11-25T21:40:44.246Z,47.50
2022-11-25T21:43:21.679Z,49.57
2022-11-25T21:45:52.348Z,51.43
2022-11-25T21:48:25.045Z,34.43
2022-11-25T21:50:52.819Z,46.10
2022-11-25T21:53:20.442Z,54.67
2022-11-25T21:55:48.264Z,46.07
2022-11-25T21:58:20.607Z,46.93
2022-11-25T22:00:57.324Z,57.93
2022-11-25T22:03:26.264Z,53.60
2022-11-25T22:05:53.612Z,50.87
2022-11-25T22:08:21.114Z,50.03
2022-11-25T22:10:54.656Z,44.87
2022-11-25T22:13:27.383Z,48.93
2022-11-25T22:15:57.664Z,62.13
2022-11-25T22:18:35.304Z,48.93
2022-11-25T22:21:02.769Z,56.17
2022-11-25T22:23:30.260Z,54.47
2022-11-25T22:25:57.832Z,69.73
2022-11-25T22:28:28.616Z,64.40
2022-11-25T22:30:58.470Z,64.80
2022-11-25T22:33:32.437Z,64.47
2022-11-25T22:35:59.802Z,50.03
2022-11-25T22:38:28.105Z,58.37
2022-11-25T22:41:09.923Z,67.07
2022-11-25T22:43:44.800Z,59.73
2022-11-25T22:46:12.196Z,61.27
2022-11-25T22:48:39.698Z,56.20
2022-11-25T22:51:16.385Z,46.27
2022-11-25T22:53:43.774Z,77.68
2022-11-25T22:56:16.877Z,70.63
2022-11-25T22:58:44.332Z,71.00
2022-11-25T23:01:16.527Z,76.10
2022-11-25T23:03:44.490Z,74.70
2022-11-25T23:06:14.262Z,67.97
2022-11-25T23:08:41.972Z,63.90
2022-11-25T23:11:17.486Z,68.80
2022-11-25T23:13:44.896Z,98.03
2022-11-25T23:16:12.675Z,79.07
2022-11-25T23:18:42.954Z,82.23
2022-11-25T23:21:22.731Z,75.57
2022-11-25T23:23:50.699Z,79.73
2022-11-25T23:26:18.077Z,76.90
2022-11-25T23:28:45.559Z,75.47
2022-11-25T23:31:14.690Z,81.37
2022-11-25T23:33:45.153Z,78.87
2022-11-25T23:36:12.471Z,78.13
2022-11-25T23:38:47.164Z,89.10
2022-11-25T23:41:17.024Z,76.53
2022-11-25T23:43:44.542Z,75.47
2022-11-25T23:46:14.811Z,83.50
2022-11-25T23:48:45.299Z,83.73
2022-11-25T23:51:12.827Z,90.20
2022-11-25T23:53:41.057Z,88.70
2022-11-25T23:56:08.780Z,82.53
2022-11-25T23:58:36.404Z,77.27
